PWSweather.com
Personal Weather Stations
Station Observations
719732
Ponferrada, PonferradaES 24411

PonferradaPonferradaES 24411

Lat: 42.5728, Lon: -6.6425

Elevation: 1676

Station Type: PCE-FWS 20 con garita Ambient Weather SRS100LX

www.meteo.spyfly.es

High Low Average
Temperature 93.0°F33.9°C 53.6°F12.0°C 73.3°F22.9°C
Dew Point 62.9°F17.2°C 52.8°F11.6°C 58.1°F14.5°C
Winds 8.3 mph 13.4 kmh Calm Calm 2.0 mph SW3.2 kmh SW
Wind Gusts 14.5 mph23.3 kmh -- 6.0 mph9.7 kmh
Humidity 99% 29% 65%
Pressure 30.08 in1018.6 mb 29.95 in1014.2 mb -
Precipitation 0.00 in0.0 mm - -
Hour Temp Dew Point Humidity Winds Wind Gusts Pressure Precip Precip Rate Daily Precip Total
12:00 AM 67.3°F19.6°C 60.6°F15.9°C 79% 1.6 mph SSE2.6 kmh SSE 3.8 mph6.1 kmh 30.02 in1016.6 mb 0.00 in0.0 mm 0.00 in0.0 mm 0.00 in0.0 mm
12:05 AM 66.7°F19.3°C 60.4°F15.8°C 80% 2.2 mph S3.5 kmh S 3.8 mph6.1 kmh 30.02 in1016.6 mb 0.00 in0.0 mm 0.00 in0.0 mm 0.00 in0.0 mm
12:10 AM 66.7°F19.3°C 61.1°F16.2°C 82% Calm Calm 3.8 mph6.1 kmh 30.02 in1016.6 mb 0.00 in0.0 mm 0.00 in0.0 mm 0.00 in0.0 mm
12:15 AM 66.4°F19.1°C 60.7°F15.9°C 82% Calm Calm 3.8 mph6.1 kmh 30.02 in1016.6 mb 0.00 in0.0 mm 0.00 in0.0 mm 0.00 in0.0 mm
12:20 AM 65.8°F18.8°C 60.2°F15.7°C 82% Calm Calm 2.2 mph3.5 kmh 30.02 in1016.6 mb 0.00 in0.0 mm 0.00 in0.0 mm 0.00 in0.0 mm
12:25 AM 65.3°F18.5°C 60.4°F15.8°C 84% 3.1 mph SSE5.0 kmh SSE 5.4 mph8.7 kmh 30.02 in1016.6 mb 0.00 in0.0 mm 0.00 in0.0 mm 0.00 in0.0 mm
12:30 AM 65.8°F18.8°C 61.2°F16.2°C 85% 0.7 mph SSE1.1 kmh SSE 5.4 mph8.7 kmh 30.02 in1016.6 mb 0.00 in0.0 mm 0.00 in0.0 mm 0.00 in0.0 mm
12:35 AM 65.8°F18.8°C 61.2°F16.2°C 85% Calm Calm 5.4 mph8.7 kmh 30.03 in1016.9 mb 0.00 in0.0 mm 0.00 in0.0 mm 0.00 in0.0 mm
12:40 AM 65.3°F18.5°C 60.4°F15.8°C 84% 2.2 mph SSE3.5 kmh SSE 4.5 mph7.2 kmh 30.02 in1016.6 mb 0.00 in0.0 mm 0.00 in0.0 mm 0.00 in0.0 mm
12:45 AM 65.3°F18.5°C 60.7°F15.9°C 85% 2.2 mph S3.5 kmh S 4.5 mph7.2 kmh 30.02 in1016.6 mb 0.00 in0.0 mm 0.00 in0.0 mm 0.00 in0.0 mm
12:50 AM 65.3°F18.5°C 60.7°F15.9°C 85% 2.2 mph S3.5 kmh S 6.0 mph9.7 kmh 30.02 in1016.6 mb 0.00 in0.0 mm 0.00 in0.0 mm 0.00 in0.0 mm
12:55 AM 65.5°F18.6°C 60.9°F16.1°C 85% 3.1 mph S5.0 kmh S 6.0 mph9.7 kmh 30.03 in1016.9 mb 0.00 in0.0 mm 0.00 in0.0 mm 0.00 in0.0 mm
01:00 AM 65.5°F18.6°C 60.9°F16.1°C 85% 2.2 mph SSE3.5 kmh SSE 5.4 mph8.7 kmh 30.03 in1016.9 mb 0.00 in0.0 mm 0.00 in0.0 mm 0.00 in0.0 mm
01:05 AM 65.5°F18.6°C 60.9°F16.1°C 85% 3.1 mph S5.0 kmh S 5.4 mph8.7 kmh 30.03 in1016.9 mb 0.00 in0.0 mm 0.00 in0.0 mm 0.00 in0.0 mm
01:10 AM 65.5°F18.6°C 60.9°F16.1°C 85% 1.6 mph S2.6 kmh S 3.8 mph6.1 kmh 30.03 in1016.9 mb 0.00 in0.0 mm 0.00 in0.0 mm 0.00 in0.0 mm
01:15 AM 65.3°F18.5°C 60.7°F15.9°C 85% 1.6 mph SSE2.6 kmh SSE 3.8 mph6.1 kmh 30.03 in1016.9 mb 0.00 in0.0 mm 0.00 in0.0 mm 0.00 in0.0 mm
01:20 AM 64.9°F18.3°C 60.0°F15.6°C 84% 0.7 mph SE1.1 kmh SE 3.8 mph6.1 kmh 30.03 in1016.9 mb 0.00 in0.0 mm 0.00 in0.0 mm 0.00 in0.0 mm
01:25 AM 64.0°F17.8°C 58.5°F14.7°C 82% Calm Calm 2.2 mph3.5 kmh 30.03 in1016.9 mb 0.00 in0.0 mm 0.00 in0.0 mm 0.00 in0.0 mm
01:30 AM 63.1°F17.3°C 57.6°F14.2°C 82% 1.6 mph N2.6 kmh N 2.2 mph3.5 kmh 30.03 in1016.9 mb 0.00 in0.0 mm 0.00 in0.0 mm 0.00 in0.0 mm
01:35 AM 62.2°F16.8°C 57.4°F14.1°C 84% 0.7 mph N1.1 kmh N 2.2 mph3.5 kmh 30.03 in1016.9 mb 0.00 in0.0 mm 0.00 in0.0 mm 0.00 in0.0 mm
01:40 AM 61.5°F16.4°C 56.7°F13.7°C 84% Calm Calm 2.2 mph3.5 kmh 30.03 in1016.9 mb 0.00 in0.0 mm 0.00 in0.0 mm 0.00 in0.0 mm
01:45 AM 61.0°F16.1°C 56.5°F13.6°C 85% Calm Calm 1.6 mph2.6 kmh 30.03 in1016.9 mb 0.00 in0.0 mm 0.00 in0.0 mm 0.00 in0.0 mm
01:50 AM 60.6°F15.9°C 56.7°F13.7°C 87% Calm Calm 0.7 mph1.1 kmh 30.03 in1016.9 mb 0.00 in0.0 mm 0.00 in0.0 mm 0.00 in0.0 mm
01:55 AM 60.1°F15.6°C 56.5°F13.6°C 88% Calm Calm 1.6 mph2.6 kmh 30.03 in1016.9 mb 0.00 in0.0 mm 0.00 in0.0 mm 0.00 in0.0 mm
02:00 AM 59.7°F15.4°C 56.5°F13.6°C 89% 1.6 mph N2.6 kmh N 2.2 mph3.5 kmh 30.04 in1017.3 mb 0.00 in0.0 mm 0.00 in0.0 mm 0.00 in0.0 mm
02:05 AM 59.5°F15.3°C 56.6°F13.7°C 90% Calm Calm 2.2 mph3.5 kmh 30.04 in1017.3 mb 0.00 in0.0 mm 0.00 in0.0 mm 0.00 in0.0 mm
02:10 AM 59.5°F15.3°C 57.2°F14.0°C 92% 1.6 mph ESE2.6 kmh ESE 2.2 mph3.5 kmh 30.03 in1016.9 mb 0.00 in0.0 mm 0.00 in0.0 mm 0.00 in0.0 mm
02:15 AM 59.7°F15.4°C 57.7°F14.3°C 93% 1.6 mph SE2.6 kmh SE 2.2 mph3.5 kmh 30.03 in1016.9 mb 0.00 in0.0 mm 0.00 in0.0 mm 0.00 in0.0 mm
02:20 AM 59.9°F15.5°C 57.9°F14.4°C 93% 2.2 mph SE3.5 kmh SE 3.1 mph5.0 kmh 30.04 in1017.3 mb 0.00 in0.0 mm 0.00 in0.0 mm 0.00 in0.0 mm
02:25 AM 60.1°F15.6°C 58.1°F14.5°C 93% Calm Calm 3.1 mph5.0 kmh 30.04 in1017.3 mb 0.00 in0.0 mm 0.00 in0.0 mm 0.00 in0.0 mm
02:30 AM 59.9°F15.5°C 57.9°F14.4°C 93% Calm Calm 2.2 mph3.5 kmh 30.04 in1017.3 mb 0.00 in0.0 mm 0.00 in0.0 mm 0.00 in0.0 mm
02:35 AM 59.7°F15.4°C 57.7°F14.3°C 93% 0.7 mph W1.1 kmh W 3.8 mph6.1 kmh 30.04 in1017.3 mb 0.00 in0.0 mm 0.00 in0.0 mm 0.00 in0.0 mm
02:40 AM 59.5°F15.3°C 57.5°F14.2°C 93% 1.6 mph SW2.6 kmh SW 4.5 mph7.2 kmh 30.04 in1017.3 mb 0.00 in0.0 mm 0.00 in0.0 mm 0.00 in0.0 mm
02:45 AM 59.5°F15.3°C 57.5°F14.2°C 93% 0.7 mph SSW1.1 kmh SSW 4.5 mph7.2 kmh 30.04 in1017.3 mb 0.00 in0.0 mm 0.00 in0.0 mm 0.00 in0.0 mm
02:50 AM 59.0°F15.0°C 57.0°F13.9°C 93% 0.7 mph NNW1.1 kmh NNW 3.8 mph6.1 kmh 30.04 in1017.3 mb 0.00 in0.0 mm 0.00 in0.0 mm 0.00 in0.0 mm
02:55 AM 58.6°F14.8°C 56.9°F13.8°C 94% 0.7 mph N1.1 kmh N 3.1 mph5.0 kmh 30.04 in1017.3 mb 0.00 in0.0 mm 0.00 in0.0 mm 0.00 in0.0 mm
03:00 AM 58.5°F14.7°C 56.8°F13.8°C 94% 0.7 mph N1.1 kmh N 2.2 mph3.5 kmh 30.03 in1016.9 mb 0.00 in0.0 mm 0.00 in0.0 mm 0.00 in0.0 mm
03:05 AM 58.5°F14.7°C 56.8°F13.8°C 94% 0.7 mph N1.1 kmh N 1.6 mph2.6 kmh 30.04 in1017.3 mb 0.00 in0.0 mm 0.00 in0.0 mm 0.00 in0.0 mm
03:10 AM 57.7°F14.3°C 56.0°F13.3°C 94% 0.7 mph N1.1 kmh N 1.6 mph2.6 kmh 30.04 in1017.3 mb 0.00 in0.0 mm 0.00 in0.0 mm 0.00 in0.0 mm
03:15 AM 57.6°F14.2°C 55.9°F13.3°C 94% 0.7 mph NNW1.1 kmh NNW 2.2 mph3.5 kmh 30.04 in1017.3 mb 0.00 in0.0 mm 0.00 in0.0 mm 0.00 in0.0 mm
03:20 AM 57.4°F14.1°C 55.7°F13.2°C 94% Calm Calm 2.2 mph3.5 kmh 30.04 in1017.3 mb 0.00 in0.0 mm 0.00 in0.0 mm 0.00 in0.0 mm
03:25 AM 57.2°F14.0°C 55.8°F13.2°C 95% 0.7 mph N1.1 kmh N 2.2 mph3.5 kmh 30.04 in1017.3 mb 0.00 in0.0 mm 0.00 in0.0 mm 0.00 in0.0 mm
03:30 AM 57.0°F13.9°C 55.9°F13.3°C 96% Calm Calm 2.2 mph3.5 kmh 30.04 in1017.3 mb 0.00 in0.0 mm 0.00 in0.0 mm 0.00 in0.0 mm
03:35 AM 56.7°F13.7°C 55.5°F13.1°C 96% Calm Calm 2.2 mph3.5 kmh 30.04 in1017.3 mb 0.00 in0.0 mm 0.00 in0.0 mm 0.00 in0.0 mm
03:40 AM 56.7°F13.7°C 55.5°F13.1°C 96% 0.7 mph N1.1 kmh N 2.2 mph3.5 kmh 30.04 in1017.3 mb 0.00 in0.0 mm 0.00 in0.0 mm 0.00 in0.0 mm
03:45 AM 56.5°F13.6°C 55.6°F13.1°C 97% Calm Calm 2.2 mph3.5 kmh 30.04 in1017.3 mb 0.00 in0.0 mm 0.00 in0.0 mm 0.00 in0.0 mm
03:50 AM 56.3°F13.5°C 55.5°F13.1°C 97% Calm Calm 1.6 mph2.6 kmh 30.04 in1017.3 mb 0.00 in0.0 mm 0.00 in0.0 mm 0.00 in0.0 mm
03:55 AM 56.1°F13.4°C 55.3°F12.9°C 97% 0.7 mph ENE1.1 kmh ENE 1.6 mph2.6 kmh 30.04 in1017.3 mb 0.00 in0.0 mm 0.00 in0.0 mm 0.00 in0.0 mm
04:00 AM 56.1°F13.4°C 55.3°F12.9°C 97% Calm Calm 1.6 mph2.6 kmh 30.04 in1017.3 mb 0.00 in0.0 mm 0.00 in0.0 mm 0.00 in0.0 mm
04:05 AM 55.9°F13.3°C 55.1°F12.8°C 97% Calm Calm 1.6 mph2.6 kmh 30.04 in1017.3 mb 0.00 in0.0 mm 0.00 in0.0 mm 0.00 in0.0 mm
04:10 AM 55.9°F13.3°C 55.4°F13.0°C 98% 0.7 mph SE1.1 kmh SE 2.2 mph3.5 kmh 30.04 in1017.3 mb 0.00 in0.0 mm 0.00 in0.0 mm 0.00 in0.0 mm
04:15 AM 56.1°F13.4°C 55.6°F13.1°C 98% 0.7 mph ESE1.1 kmh ESE 2.2 mph3.5 kmh 30.04 in1017.3 mb 0.00 in0.0 mm 0.00 in0.0 mm 0.00 in0.0 mm
04:20 AM 56.3°F13.5°C 56.0°F13.3°C 99% 0.7 mph E1.1 kmh E 2.2 mph3.5 kmh 30.04 in1017.3 mb 0.00 in0.0 mm 0.00 in0.0 mm 0.00 in0.0 mm
04:25 AM 56.3°F13.5°C 56.0°F13.3°C 99% Calm Calm 2.2 mph3.5 kmh 30.04 in1017.3 mb 0.00 in0.0 mm 0.00 in0.0 mm 0.00 in0.0 mm
04:30 AM 56.3°F13.5°C 56.0°F13.3°C 99% Calm Calm 2.2 mph3.5 kmh 30.04 in1017.3 mb 0.00 in0.0 mm 0.00 in0.0 mm 0.00 in0.0 mm
04:35 AM 55.9°F13.3°C 55.7°F13.2°C 99% Calm Calm 1.6 mph2.6 kmh 30.04 in1017.3 mb 0.00 in0.0 mm 0.00 in0.0 mm 0.00 in0.0 mm
04:40 AM 55.9°F13.3°C 55.4°F13.0°C 98% Calm Calm 2.2 mph3.5 kmh 30.04 in1017.3 mb 0.00 in0.0 mm 0.00 in0.0 mm 0.00 in0.0 mm
04:45 AM 55.6°F13.1°C 55.0°F12.8°C 98% Calm Calm 2.2 mph3.5 kmh 30.04 in1017.3 mb 0.00 in0.0 mm 0.00 in0.0 mm 0.00 in0.0 mm
04:50 AM 55.4°F13.0°C 54.9°F12.7°C 98% 0.7 mph N1.1 kmh N 1.6 mph2.6 kmh 30.04 in1017.3 mb 0.00 in0.0 mm 0.00 in0.0 mm 0.00 in0.0 mm
04:55 AM 55.2°F12.9°C 54.4°F12.4°C 97% 0.7 mph NNW1.1 kmh NNW 1.6 mph2.6 kmh 30.04 in1017.3 mb 0.00 in0.0 mm 0.00 in0.0 mm 0.00 in0.0 mm
05:00 AM 55.0°F12.8°C 54.2°F12.3°C 97% Calm Calm 2.2 mph3.5 kmh 30.04 in1017.3 mb 0.00 in0.0 mm 0.00 in0.0 mm 0.00 in0.0 mm
05:05 AM 55.0°F12.8°C 54.2°F12.3°C 97% Calm Calm 2.2 mph3.5 kmh 30.04 in1017.3 mb 0.00 in0.0 mm 0.00 in0.0 mm 0.00 in0.0 mm
05:10 AM 54.9°F12.7°C 54.0°F12.2°C 97% Calm Calm 0.7 mph1.1 kmh 30.05 in1017.6 mb 0.00 in0.0 mm 0.00 in0.0 mm 0.00 in0.0 mm
05:15 AM 54.9°F12.7°C 54.0°F12.2°C 97% 0.7 mph E1.1 kmh E 1.6 mph2.6 kmh 30.04 in1017.3 mb 0.00 in0.0 mm 0.00 in0.0 mm 0.00 in0.0 mm
05:20 AM 54.9°F12.7°C 54.0°F12.2°C 97% 1.6 mph E2.6 kmh E 2.2 mph3.5 kmh 30.05 in1017.6 mb 0.00 in0.0 mm 0.00 in0.0 mm 0.00 in0.0 mm
05:25 AM 55.0°F12.8°C 54.2°F12.3°C 97% 0.7 mph E1.1 kmh E 2.2 mph3.5 kmh 30.05 in1017.6 mb 0.00 in0.0 mm 0.00 in0.0 mm 0.00 in0.0 mm
05:30 AM 55.2°F12.9°C 54.4°F12.4°C 97% Calm Calm 2.2 mph3.5 kmh 30.05 in1017.6 mb 0.00 in0.0 mm 0.00 in0.0 mm 0.00 in0.0 mm
05:35 AM 55.0°F12.8°C 54.2°F12.3°C 97% 0.7 mph NNW1.1 kmh NNW 1.6 mph2.6 kmh 30.05 in1017.6 mb 0.00 in0.0 mm 0.00 in0.0 mm 0.00 in0.0 mm
05:40 AM 55.0°F12.8°C 54.2°F12.3°C 97% 0.7 mph NE1.1 kmh NE 2.2 mph3.5 kmh 30.04 in1017.3 mb 0.00 in0.0 mm 0.00 in0.0 mm 0.00 in0.0 mm
05:45 AM 55.0°F12.8°C 54.2°F12.3°C 97% Calm Calm 2.2 mph3.5 kmh 30.05 in1017.6 mb 0.00 in0.0 mm 0.00 in0.0 mm 0.00 in0.0 mm
05:50 AM 54.9°F12.7°C 54.0°F12.2°C 97% Calm Calm 1.6 mph2.6 kmh 30.05 in1017.6 mb 0.00 in0.0 mm 0.00 in0.0 mm 0.00 in0.0 mm
05:55 AM 54.7°F12.6°C 53.9°F12.2°C 97% Calm Calm -- 30.05 in1017.6 mb 0.00 in0.0 mm 0.00 in0.0 mm 0.00 in0.0 mm
06:00 AM 54.3°F12.4°C 53.5°F11.9°C 97% Calm Calm -- 30.05 in1017.6 mb 0.00 in0.0 mm 0.00 in0.0 mm 0.00 in0.0 mm
06:05 AM 54.3°F12.4°C 53.5°F11.9°C 97% 0.7 mph SE1.1 kmh SE 1.6 mph2.6 kmh 30.05 in1017.6 mb 0.00 in0.0 mm 0.00 in0.0 mm 0.00 in0.0 mm
06:10 AM 54.3°F12.4°C 53.5°F11.9°C 97% 1.6 mph SE2.6 kmh SE 2.2 mph3.5 kmh 30.05 in1017.6 mb 0.00 in0.0 mm 0.00 in0.0 mm 0.00 in0.0 mm
06:15 AM 54.3°F12.4°C 53.5°F11.9°C 97% 1.6 mph E2.6 kmh E 2.2 mph3.5 kmh 30.05 in1017.6 mb 0.00 in0.0 mm 0.00 in0.0 mm 0.00 in0.0 mm
06:20 AM 54.3°F12.4°C 53.5°F11.9°C 97% 0.7 mph E1.1 kmh E 2.2 mph3.5 kmh 30.06 in1017.9 mb 0.00 in0.0 mm 0.00 in0.0 mm 0.00 in0.0 mm
06:25 AM 54.5°F12.5°C 53.7°F12.1°C 97% 1.6 mph E2.6 kmh E 2.2 mph3.5 kmh 30.06 in1017.9 mb 0.00 in0.0 mm 0.00 in0.0 mm 0.00 in0.0 mm
06:30 AM 54.3°F12.4°C 53.5°F11.9°C 97% Calm Calm 2.2 mph3.5 kmh 30.06 in1017.9 mb 0.00 in0.0 mm 0.00 in0.0 mm 0.00 in0.0 mm
06:35 AM 54.1°F12.3°C 53.3°F11.8°C 97% Calm Calm 2.2 mph3.5 kmh 30.06 in1017.9 mb 0.00 in0.0 mm 0.00 in0.0 mm 0.00 in0.0 mm
06:40 AM 54.0°F12.2°C 53.1°F11.7°C 97% Calm Calm -- 30.06 in1017.9 mb 0.00 in0.0 mm 0.00 in0.0 mm 0.00 in0.0 mm
06:45 AM 53.8°F12.1°C 53.0°F11.7°C 97% Calm Calm -- 30.06 in1017.9 mb 0.00 in0.0 mm 0.00 in0.0 mm 0.00 in0.0 mm
06:50 AM 53.8°F12.1°C 53.0°F11.7°C 97% Calm Calm -- 30.06 in1017.9 mb 0.00 in0.0 mm 0.00 in0.0 mm 0.00 in0.0 mm
06:55 AM 53.6°F12.0°C 52.8°F11.6°C 97% 0.7 mph NW1.1 kmh NW 1.6 mph2.6 kmh 30.07 in1018.3 mb 0.00 in0.0 mm 0.00 in0.0 mm 0.00 in0.0 mm
07:00 AM 53.6°F12.0°C 52.8°F11.6°C 97% Calm Calm 1.6 mph2.6 kmh 30.07 in1018.3 mb 0.00 in0.0 mm 0.00 in0.0 mm 0.00 in0.0 mm
07:05 AM 53.6°F12.0°C 52.8°F11.6°C 97% Calm Calm 0.7 mph1.1 kmh 30.07 in1018.3 mb 0.00 in0.0 mm 0.00 in0.0 mm 0.00 in0.0 mm
07:10 AM 53.6°F12.0°C 52.8°F11.6°C 97% Calm Calm 1.6 mph2.6 kmh 30.07 in1018.3 mb 0.00 in0.0 mm 0.00 in0.0 mm 0.00 in0.0 mm
07:15 AM 54.0°F12.2°C 53.1°F11.7°C 97% Calm Calm 1.6 mph2.6 kmh 30.07 in1018.3 mb 0.00 in0.0 mm 0.00 in0.0 mm 0.00 in0.0 mm
07:20 AM 54.1°F12.3°C 53.3°F11.8°C 97% Calm Calm -- 30.06 in1017.9 mb 0.00 in0.0 mm 0.00 in0.0 mm 0.00 in0.0 mm
07:25 AM 54.7°F12.6°C 53.9°F12.2°C 97% Calm Calm -- 30.07 in1018.3 mb 0.00 in0.0 mm 0.00 in0.0 mm 0.00 in0.0 mm
07:30 AM 55.0°F12.8°C 54.2°F12.3°C 97% Calm Calm -- 30.07 in1018.3 mb 0.00 in0.0 mm 0.00 in0.0 mm 0.00 in0.0 mm
07:35 AM 55.8°F13.2°C 55.5°F13.1°C 99% Calm Calm -- 30.07 in1018.3 mb 0.00 in0.0 mm 0.00 in0.0 mm 0.00 in0.0 mm
07:40 AM 56.5°F13.6°C 56.2°F13.4°C 99% Calm Calm -- 30.07 in1018.3 mb 0.00 in0.0 mm 0.00 in0.0 mm 0.00 in0.0 mm
07:45 AM 57.7°F14.3°C 57.5°F14.2°C 99% Calm Calm -- 30.07 in1018.3 mb 0.00 in0.0 mm 0.00 in0.0 mm 0.00 in0.0 mm
07:50 AM 59.0°F15.0°C 58.2°F14.6°C 97% Calm Calm -- 30.07 in1018.3 mb 0.00 in0.0 mm 0.00 in0.0 mm 0.00 in0.0 mm
07:55 AM 60.1°F15.6°C 59.0°F15.0°C 96% Calm Calm -- 30.07 in1018.3 mb 0.00 in0.0 mm 0.00 in0.0 mm 0.00 in0.0 mm
08:00 AM 61.0°F16.1°C 59.0°F15.0°C 93% Calm Calm 1.6 mph2.6 kmh 30.07 in1018.3 mb 0.00 in0.0 mm 0.00 in0.0 mm 0.00 in0.0 mm
08:05 AM 62.1°F16.7°C 58.8°F14.9°C 89% 0.7 mph SSW1.1 kmh SSW 2.2 mph3.5 kmh 30.07 in1018.3 mb 0.00 in0.0 mm 0.00 in0.0 mm 0.00 in0.0 mm
08:10 AM 62.8°F17.1°C 57.9°F14.4°C 84% 0.7 mph SSW1.1 kmh SSW 2.2 mph3.5 kmh 30.07 in1018.3 mb 0.00 in0.0 mm 0.00 in0.0 mm 0.00 in0.0 mm
08:15 AM 63.5°F17.5°C 57.9°F14.4°C 82% 1.6 mph SSE2.6 kmh SSE 3.1 mph5.0 kmh 30.07 in1018.3 mb 0.00 in0.0 mm 0.00 in0.0 mm 0.00 in0.0 mm
08:20 AM 63.9°F17.7°C 57.6°F14.2°C 80% 0.7 mph SSE1.1 kmh SSE 3.1 mph5.0 kmh 30.08 in1018.6 mb 0.00 in0.0 mm 0.00 in0.0 mm 0.00 in0.0 mm
08:25 AM 64.4°F18.0°C 57.4°F14.1°C 78% 0.7 mph S1.1 kmh S 3.1 mph5.0 kmh 30.08 in1018.6 mb 0.00 in0.0 mm 0.00 in0.0 mm 0.00 in0.0 mm
08:30 AM 64.8°F18.2°C 57.8°F14.3°C 78% 0.7 mph S1.1 kmh S 2.2 mph3.5 kmh 30.08 in1018.6 mb 0.00 in0.0 mm 0.00 in0.0 mm 0.00 in0.0 mm
08:35 AM 64.9°F18.3°C 57.6°F14.2°C 77% 0.7 mph SSW1.1 kmh SSW 3.1 mph5.0 kmh 30.08 in1018.6 mb 0.00 in0.0 mm 0.00 in0.0 mm 0.00 in0.0 mm
08:40 AM 65.5°F18.6°C 58.1°F14.5°C 77% 1.6 mph SW2.6 kmh SW 3.1 mph5.0 kmh 30.08 in1018.6 mb 0.00 in0.0 mm 0.00 in0.0 mm 0.00 in0.0 mm
08:45 AM 65.8°F18.8°C 58.4°F14.7°C 77% 2.2 mph W3.5 kmh W 3.8 mph6.1 kmh 30.08 in1018.6 mb 0.00 in0.0 mm 0.00 in0.0 mm 0.00 in0.0 mm
08:50 AM 66.2°F19.0°C 58.4°F14.7°C 76% 0.7 mph WSW1.1 kmh WSW 3.8 mph6.1 kmh 30.08 in1018.6 mb 0.00 in0.0 mm 0.00 in0.0 mm 0.00 in0.0 mm
08:55 AM 66.6°F19.2°C 58.4°F14.7°C 75% Calm Calm 3.8 mph6.1 kmh 30.08 in1018.6 mb 0.00 in0.0 mm 0.00 in0.0 mm 0.00 in0.0 mm
09:00 AM 66.7°F19.3°C 58.6°F14.8°C 75% 1.6 mph W2.6 kmh W 3.8 mph6.1 kmh 30.08 in1018.6 mb 0.00 in0.0 mm 0.00 in0.0 mm 0.00 in0.0 mm
09:40 AM 69.8°F21.0°C 59.6°F15.3°C 70% 0.7 mph SW1.1 kmh SW 3.1 mph5.0 kmh 30.07 in1018.3 mb 0.00 in0.0 mm 0.00 in0.0 mm 0.00 in0.0 mm
11:15 AM 76.6°F24.8°C 62.7°F17.1°C 62% 3.1 mph NW5.0 kmh NW 6.0 mph9.7 kmh 30.06 in1017.9 mb 0.00 in0.0 mm 0.00 in0.0 mm 0.00 in0.0 mm
11:20 AM 77.0°F25.0°C 61.6°F16.4°C 59% 3.8 mph NW6.1 kmh NW 6.0 mph9.7 kmh 30.06 in1017.9 mb 0.00 in0.0 mm 0.00 in0.0 mm 0.00 in0.0 mm
11:25 AM 77.4°F25.2°C 62.9°F17.2°C 61% 2.2 mph NW3.5 kmh NW 5.4 mph8.7 kmh 30.05 in1017.6 mb 0.00 in0.0 mm 0.00 in0.0 mm 0.00 in0.0 mm
11:30 AM 77.7°F25.4°C 62.3°F16.8°C 59% 1.6 mph NW2.6 kmh NW 4.5 mph7.2 kmh 30.05 in1017.6 mb 0.00 in0.0 mm 0.00 in0.0 mm 0.00 in0.0 mm
11:35 AM 78.1°F25.6°C 61.6°F16.4°C 57% 0.7 mph NW1.1 kmh NW 6.0 mph9.7 kmh 30.05 in1017.6 mb 0.00 in0.0 mm 0.00 in0.0 mm 0.00 in0.0 mm
11:40 AM 78.4°F25.8°C 62.0°F16.7°C 57% 1.6 mph WSW2.6 kmh WSW 6.0 mph9.7 kmh 30.05 in1017.6 mb 0.00 in0.0 mm 0.00 in0.0 mm 0.00 in0.0 mm
11:45 AM 79.0°F26.1°C 61.0°F16.1°C 54% 1.6 mph WSW2.6 kmh WSW 5.4 mph8.7 kmh 30.05 in1017.6 mb 0.00 in0.0 mm 0.00 in0.0 mm 0.00 in0.0 mm
12:00 PM 79.5°F26.4°C 61.5°F16.4°C 54% 3.8 mph W6.1 kmh W 5.4 mph8.7 kmh 30.04 in1017.3 mb 0.00 in0.0 mm 0.00 in0.0 mm 0.00 in0.0 mm
12:05 PM 79.5°F26.4°C 60.9°F16.1°C 53% 1.6 mph WNW2.6 kmh WNW 5.4 mph8.7 kmh 30.04 in1017.3 mb 0.00 in0.0 mm 0.00 in0.0 mm 0.00 in0.0 mm
12:10 PM 80.1°F26.7°C 60.9°F16.1°C 52% 1.6 mph W2.6 kmh W 3.8 mph6.1 kmh 30.04 in1017.3 mb 0.00 in0.0 mm 0.00 in0.0 mm 0.00 in0.0 mm
12:15 PM 80.6°F27.0°C 60.8°F16.0°C 51% Calm Calm 3.8 mph6.1 kmh 30.04 in1017.3 mb 0.00 in0.0 mm 0.00 in0.0 mm 0.00 in0.0 mm
12:20 PM 81.3°F27.4°C 62.1°F16.7°C 52% 3.8 mph SSW6.1 kmh SSW 5.4 mph8.7 kmh 30.04 in1017.3 mb 0.00 in0.0 mm 0.00 in0.0 mm 0.00 in0.0 mm
12:25 PM 81.7°F27.6°C 60.7°F15.9°C 49% 2.2 mph SSW3.5 kmh SSW 5.4 mph8.7 kmh 30.04 in1017.3 mb 0.00 in0.0 mm 0.00 in0.0 mm 0.00 in0.0 mm
12:30 PM 81.9°F27.7°C 60.9°F16.1°C 49% 3.8 mph WSW6.1 kmh WSW 5.4 mph8.7 kmh 30.04 in1017.3 mb 0.00 in0.0 mm 0.00 in0.0 mm 0.00 in0.0 mm
12:35 PM 82.0°F27.8°C 62.2°F16.8°C 51% 3.1 mph WNW5.0 kmh WNW 5.4 mph8.7 kmh 30.04 in1017.3 mb 0.00 in0.0 mm 0.00 in0.0 mm 0.00 in0.0 mm
12:40 PM 82.2°F27.9°C 60.6°F15.9°C 48% 3.8 mph WNW6.1 kmh WNW 8.3 mph13.4 kmh 30.03 in1016.9 mb 0.00 in0.0 mm 0.00 in0.0 mm 0.00 in0.0 mm
12:45 PM 82.6°F28.1°C 59.8°F15.4°C 46% 1.6 mph WNW2.6 kmh WNW 8.3 mph13.4 kmh 30.03 in1016.9 mb 0.00 in0.0 mm 0.00 in0.0 mm 0.00 in0.0 mm
12:50 PM 83.1°F28.4°C 60.2°F15.7°C 46% Calm Calm 6.0 mph9.7 kmh 30.04 in1017.3 mb 0.00 in0.0 mm 0.00 in0.0 mm 0.00 in0.0 mm
12:55 PM 83.8°F28.8°C 60.9°F16.1°C 46% 1.6 mph NNW2.6 kmh NNW 4.5 mph7.2 kmh 30.03 in1016.9 mb 0.00 in0.0 mm 0.00 in0.0 mm 0.00 in0.0 mm
01:00 PM 84.2°F29.0°C 60.6°F15.9°C 45% 3.8 mph NW6.1 kmh NW 6.9 mph11.1 kmh 30.03 in1016.9 mb 0.00 in0.0 mm 0.00 in0.0 mm 0.00 in0.0 mm
01:05 PM 84.4°F29.1°C 60.8°F16.0°C 45% 3.1 mph NW5.0 kmh NW 6.9 mph11.1 kmh 30.03 in1016.9 mb 0.00 in0.0 mm 0.00 in0.0 mm 0.00 in0.0 mm
01:10 PM 85.5°F29.7°C 61.7°F16.5°C 45% 2.2 mph NW3.5 kmh NW 6.0 mph9.7 kmh 30.02 in1016.6 mb 0.00 in0.0 mm 0.00 in0.0 mm 0.00 in0.0 mm
01:15 PM 85.8°F29.9°C 61.4°F16.3°C 44% 3.8 mph WNW6.1 kmh WNW 6.0 mph9.7 kmh 30.02 in1016.6 mb 0.00 in0.0 mm 0.00 in0.0 mm 0.00 in0.0 mm
01:20 PM 85.8°F29.9°C 60.8°F16.0°C 43% 4.5 mph WNW7.2 kmh WNW 7.6 mph12.2 kmh 30.02 in1016.6 mb 0.00 in0.0 mm 0.00 in0.0 mm 0.00 in0.0 mm
01:25 PM 86.0°F30.0°C 61.0°F16.1°C 43% 2.2 mph WNW3.5 kmh WNW 7.6 mph12.2 kmh 30.02 in1016.6 mb 0.00 in0.0 mm 0.00 in0.0 mm 0.00 in0.0 mm
01:30 PM 86.4°F30.2°C 61.3°F16.3°C 43% 2.2 mph WNW3.5 kmh WNW 7.6 mph12.2 kmh 30.02 in1016.6 mb 0.00 in0.0 mm 0.00 in0.0 mm 0.00 in0.0 mm
01:35 PM 86.5°F30.3°C 61.4°F16.3°C 43% 3.8 mph NW6.1 kmh NW 6.0 mph9.7 kmh 30.02 in1016.6 mb 0.00 in0.0 mm 0.00 in0.0 mm 0.00 in0.0 mm
01:40 PM 86.5°F30.3°C 61.4°F16.3°C 43% 0.7 mph NW1.1 kmh NW 8.3 mph13.4 kmh 30.02 in1016.6 mb 0.00 in0.0 mm 0.00 in0.0 mm 0.00 in0.0 mm
01:45 PM 87.1°F30.6°C 60.6°F15.9°C 41% 3.1 mph NW5.0 kmh NW 8.3 mph13.4 kmh 30.02 in1016.6 mb 0.00 in0.0 mm 0.00 in0.0 mm 0.00 in0.0 mm
01:50 PM 87.4°F30.8°C 60.2°F15.7°C 40% 3.1 mph NW5.0 kmh NW 7.6 mph12.2 kmh 30.01 in1016.3 mb 0.00 in0.0 mm 0.00 in0.0 mm 0.00 in0.0 mm
02:00 PM 88.0°F31.1°C 56.2°F13.4°C 34% 2.2 mph W3.5 kmh W 7.6 mph12.2 kmh 30.02 in1016.6 mb 0.00 in0.0 mm 0.00 in0.0 mm 0.00 in0.0 mm
02:05 PM 87.8°F31.0°C 56.0°F13.3°C 34% Calm Calm 7.6 mph12.2 kmh 30.01 in1016.3 mb 0.00 in0.0 mm 0.00 in0.0 mm 0.00 in0.0 mm
02:10 PM 88.0°F31.1°C 56.2°F13.4°C 34% 3.1 mph WSW5.0 kmh WSW 7.6 mph12.2 kmh 30.01 in1016.3 mb 0.00 in0.0 mm 0.00 in0.0 mm 0.00 in0.0 mm
02:15 PM 88.3°F31.3°C 57.3°F14.1°C 35% 1.6 mph WNW2.6 kmh WNW 6.0 mph9.7 kmh 30.00 in1015.9 mb 0.00 in0.0 mm 0.00 in0.0 mm 0.00 in0.0 mm
02:20 PM 88.5°F31.4°C 55.0°F12.8°C 32% 2.2 mph W3.5 kmh W 5.4 mph8.7 kmh 30.01 in1016.3 mb 0.00 in0.0 mm 0.00 in0.0 mm 0.00 in0.0 mm
02:25 PM 89.1°F31.7°C 55.4°F13.0°C 32% 3.1 mph W5.0 kmh W 7.6 mph12.2 kmh 30.01 in1016.3 mb 0.00 in0.0 mm 0.00 in0.0 mm 0.00 in0.0 mm
02:30 PM 89.4°F31.9°C 55.7°F13.2°C 32% 4.5 mph W7.2 kmh W 7.6 mph12.2 kmh 30.01 in1016.3 mb 0.00 in0.0 mm 0.00 in0.0 mm 0.00 in0.0 mm
02:35 PM 89.2°F31.8°C 55.6°F13.1°C 32% 4.5 mph W7.2 kmh W 8.3 mph13.4 kmh 30.00 in1015.9 mb 0.00 in0.0 mm 0.00 in0.0 mm 0.00 in0.0 mm
02:40 PM 89.4°F31.9°C 57.4°F14.1°C 34% 6.0 mph NW9.7 kmh NW 8.3 mph13.4 kmh 30.01 in1016.3 mb 0.00 in0.0 mm 0.00 in0.0 mm 0.00 in0.0 mm
02:50 PM 89.6°F32.0°C 55.0°F12.8°C 31% Calm Calm 8.3 mph13.4 kmh 30.00 in1015.9 mb 0.00 in0.0 mm 0.00 in0.0 mm 0.00 in0.0 mm
02:55 PM 89.8°F32.1°C 56.9°F13.8°C 33% 3.1 mph WNW5.0 kmh WNW 8.3 mph13.4 kmh 30.00 in1015.9 mb 0.00 in0.0 mm 0.00 in0.0 mm 0.00 in0.0 mm
03:00 PM 90.1°F32.3°C 58.0°F14.4°C 34% 3.8 mph NW6.1 kmh NW 8.3 mph13.4 kmh 30.00 in1015.9 mb 0.00 in0.0 mm 0.00 in0.0 mm 0.00 in0.0 mm
03:05 PM 90.3°F32.4°C 58.2°F14.6°C 34% 4.5 mph NW7.2 kmh NW 8.3 mph13.4 kmh 29.99 in1015.6 mb 0.00 in0.0 mm 0.00 in0.0 mm 0.00 in0.0 mm
03:10 PM 90.5°F32.5°C 56.7°F13.7°C 32% 5.4 mph WNW8.7 kmh WNW 9.2 mph14.8 kmh 29.99 in1015.6 mb 0.00 in0.0 mm 0.00 in0.0 mm 0.00 in0.0 mm
03:15 PM 90.5°F32.5°C 57.5°F14.2°C 33% 4.5 mph W7.2 kmh W 9.2 mph14.8 kmh 29.99 in1015.6 mb 0.00 in0.0 mm 0.00 in0.0 mm 0.00 in0.0 mm
03:20 PM 90.5°F32.5°C 56.7°F13.7°C 32% 4.5 mph W7.2 kmh W 9.2 mph14.8 kmh 29.99 in1015.6 mb 0.00 in0.0 mm 0.00 in0.0 mm 0.00 in0.0 mm
03:25 PM 90.5°F32.5°C 55.8°F13.2°C 31% 3.8 mph W6.1 kmh W 6.9 mph11.1 kmh 29.99 in1015.6 mb 0.00 in0.0 mm 0.00 in0.0 mm 0.00 in0.0 mm
03:30 PM 90.7°F32.6°C 56.8°F13.8°C 32% 1.6 mph W2.6 kmh W 8.3 mph13.4 kmh 29.99 in1015.6 mb 0.00 in0.0 mm 0.00 in0.0 mm 0.00 in0.0 mm
03:35 PM 90.9°F32.7°C 57.8°F14.3°C 33% 4.5 mph WNW7.2 kmh WNW 8.3 mph13.4 kmh 29.98 in1015.2 mb 0.00 in0.0 mm 0.00 in0.0 mm 0.00 in0.0 mm
03:40 PM 91.2°F32.9°C 57.3°F14.1°C 32% 0.7 mph W1.1 kmh W 6.0 mph9.7 kmh 29.98 in1015.2 mb 0.00 in0.0 mm 0.00 in0.0 mm 0.00 in0.0 mm
03:45 PM 91.8°F33.2°C 60.3°F15.7°C 35% 2.2 mph SW3.5 kmh SW 6.0 mph9.7 kmh 29.98 in1015.2 mb 0.00 in0.0 mm 0.00 in0.0 mm 0.00 in0.0 mm
03:50 PM 91.8°F33.2°C 61.1°F16.2°C 36% 0.7 mph WNW1.1 kmh WNW 6.0 mph9.7 kmh 29.98 in1015.2 mb 0.00 in0.0 mm 0.00 in0.0 mm 0.00 in0.0 mm
03:55 PM 91.9°F33.3°C 60.4°F15.8°C 35% 1.6 mph WNW2.6 kmh WNW 6.0 mph9.7 kmh 29.98 in1015.2 mb 0.00 in0.0 mm 0.00 in0.0 mm 0.00 in0.0 mm
04:00 PM 91.9°F33.3°C 60.4°F15.8°C 35% 3.8 mph NW6.1 kmh NW 6.0 mph9.7 kmh 29.98 in1015.2 mb 0.00 in0.0 mm 0.00 in0.0 mm 0.00 in0.0 mm
04:05 PM 91.9°F33.3°C 58.8°F14.9°C 33% Calm Calm 7.6 mph12.2 kmh 29.97 in1014.9 mb 0.00 in0.0 mm 0.00 in0.0 mm 0.00 in0.0 mm
04:10 PM 92.3°F33.5°C 59.9°F15.5°C 34% 2.2 mph WNW3.5 kmh WNW 7.6 mph12.2 kmh 29.97 in1014.9 mb 0.00 in0.0 mm 0.00 in0.0 mm 0.00 in0.0 mm
04:15 PM 92.5°F33.6°C 57.5°F14.2°C 31% 3.8 mph WNW6.1 kmh WNW 6.9 mph11.1 kmh 29.97 in1014.9 mb 0.00 in0.0 mm 0.00 in0.0 mm 0.00 in0.0 mm
04:20 PM 92.5°F33.6°C 56.6°F13.7°C 30% 0.7 mph WSW1.1 kmh WSW 6.9 mph11.1 kmh 29.97 in1014.9 mb 0.00 in0.0 mm 0.00 in0.0 mm 0.00 in0.0 mm
04:25 PM 92.5°F33.6°C 58.4°F14.7°C 32% 3.1 mph W5.0 kmh W 7.6 mph12.2 kmh 29.97 in1014.9 mb 0.00 in0.0 mm 0.00 in0.0 mm 0.00 in0.0 mm
04:30 PM 92.3°F33.5°C 58.2°F14.6°C 32% 1.6 mph WNW2.6 kmh WNW 7.6 mph12.2 kmh 29.96 in1014.6 mb 0.00 in0.0 mm 0.00 in0.0 mm 0.00 in0.0 mm
04:35 PM 92.8°F33.8°C 58.7°F14.8°C 32% Calm Calm 6.0 mph9.7 kmh 29.96 in1014.6 mb 0.00 in0.0 mm 0.00 in0.0 mm 0.00 in0.0 mm
04:40 PM 93.0°F33.9°C 58.9°F14.9°C 32% 1.6 mph W2.6 kmh W 6.9 mph11.1 kmh 29.97 in1014.9 mb 0.00 in0.0 mm 0.00 in0.0 mm 0.00 in0.0 mm
04:45 PM 92.5°F33.6°C 55.7°F13.2°C 29% 3.1 mph W5.0 kmh W 13.0 mph20.9 kmh 29.96 in1014.6 mb 0.00 in0.0 mm 0.00 in0.0 mm 0.00 in0.0 mm
04:50 PM 92.5°F33.6°C 57.5°F14.2°C 31% 3.8 mph W6.1 kmh W 13.0 mph20.9 kmh 29.96 in1014.6 mb 0.00 in0.0 mm 0.00 in0.0 mm 0.00 in0.0 mm
04:55 PM 92.7°F33.7°C 58.6°F14.8°C 32% 3.1 mph W5.0 kmh W 6.9 mph11.1 kmh 29.96 in1014.6 mb 0.00 in0.0 mm 0.00 in0.0 mm 0.00 in0.0 mm
05:00 PM 92.8°F33.8°C 57.8°F14.3°C 31% 8.3 mph W13.4 kmh W 13.0 mph20.9 kmh 29.96 in1014.6 mb 0.00 in0.0 mm 0.00 in0.0 mm 0.00 in0.0 mm
05:05 PM 92.7°F33.7°C 56.8°F13.8°C 30% 6.0 mph W9.7 kmh W 13.0 mph20.9 kmh 29.96 in1014.6 mb 0.00 in0.0 mm 0.00 in0.0 mm 0.00 in0.0 mm
05:10 PM 92.1°F33.4°C 56.3°F13.5°C 30% 2.2 mph W3.5 kmh W 7.6 mph12.2 kmh 29.96 in1014.6 mb 0.00 in0.0 mm 0.00 in0.0 mm 0.00 in0.0 mm
05:15 PM 92.5°F33.6°C 55.7°F13.2°C 29% 4.5 mph W7.2 kmh W 7.6 mph12.2 kmh 29.96 in1014.6 mb 0.00 in0.0 mm 0.00 in0.0 mm 0.00 in0.0 mm
05:20 PM 92.5°F33.6°C 59.3°F15.2°C 33% 1.6 mph WSW2.6 kmh WSW 6.9 mph11.1 kmh 29.96 in1014.6 mb 0.00 in0.0 mm 0.00 in0.0 mm 0.00 in0.0 mm
05:25 PM 92.7°F33.7°C 59.4°F15.2°C 33% 5.4 mph W8.7 kmh W 9.8 mph15.8 kmh 29.96 in1014.6 mb 0.00 in0.0 mm 0.00 in0.0 mm 0.00 in0.0 mm
05:30 PM 92.5°F33.6°C 57.5°F14.2°C 31% 3.1 mph WNW5.0 kmh WNW 9.8 mph15.8 kmh 29.96 in1014.6 mb 0.00 in0.0 mm 0.00 in0.0 mm 0.00 in0.0 mm
05:35 PM 92.5°F33.6°C 60.9°F16.1°C 35% 2.2 mph NW3.5 kmh NW 9.2 mph14.8 kmh 29.95 in1014.2 mb 0.00 in0.0 mm 0.00 in0.0 mm 0.00 in0.0 mm
05:40 PM 92.1°F33.4°C 60.6°F15.9°C 35% 6.9 mph WNW11.1 kmh WNW 14.5 mph23.3 kmh 29.95 in1014.2 mb 0.00 in0.0 mm 0.00 in0.0 mm 0.00 in0.0 mm
05:45 PM 91.6°F33.1°C 60.1°F15.6°C 35% 4.5 mph NW7.2 kmh NW 14.5 mph23.3 kmh 29.96 in1014.6 mb 0.00 in0.0 mm 0.00 in0.0 mm 0.00 in0.0 mm
05:50 PM 91.2°F32.9°C 59.0°F15.0°C 34% 6.0 mph NW9.7 kmh NW 11.4 mph18.3 kmh 29.95 in1014.2 mb 0.00 in0.0 mm 0.00 in0.0 mm 0.00 in0.0 mm
05:55 PM 91.2°F32.9°C 59.8°F15.4°C 35% 5.4 mph NW8.7 kmh NW 9.8 mph15.8 kmh 29.96 in1014.6 mb 0.00 in0.0 mm 0.00 in0.0 mm 0.00 in0.0 mm
06:00 PM 91.4°F33.0°C 61.5°F16.4°C 37% 3.1 mph NW5.0 kmh NW 9.8 mph15.8 kmh 29.96 in1014.6 mb 0.00 in0.0 mm 0.00 in0.0 mm 0.00 in0.0 mm
06:05 PM 91.4°F33.0°C 60.8°F16.0°C 36% 4.5 mph NW7.2 kmh NW 8.3 mph13.4 kmh 29.96 in1014.6 mb 0.00 in0.0 mm 0.00 in0.0 mm 0.00 in0.0 mm
06:10 PM 91.2°F32.9°C 59.0°F15.0°C 34% 6.0 mph WNW9.7 kmh WNW 9.2 mph14.8 kmh 29.95 in1014.2 mb 0.00 in0.0 mm 0.00 in0.0 mm 0.00 in0.0 mm
06:20 PM 91.2°F32.9°C 59.8°F15.4°C 35% 2.2 mph NW3.5 kmh NW 9.8 mph15.8 kmh 29.95 in1014.2 mb 0.00 in0.0 mm 0.00 in0.0 mm 0.00 in0.0 mm
06:25 PM 90.9°F32.7°C 58.7°F14.8°C 34% 8.3 mph NW13.4 kmh NW 11.4 mph18.3 kmh 29.95 in1014.2 mb 0.00 in0.0 mm 0.00 in0.0 mm 0.00 in0.0 mm
06:30 PM 90.3°F32.4°C 59.0°F15.0°C 35% 6.0 mph WNW9.7 kmh WNW 11.4 mph18.3 kmh 29.96 in1014.6 mb 0.00 in0.0 mm 0.00 in0.0 mm 0.00 in0.0 mm
06:35 PM 90.1°F32.3°C 58.9°F14.9°C 35% 3.1 mph NW5.0 kmh NW 10.7 mph17.2 kmh 29.95 in1014.2 mb 0.00 in0.0 mm 0.00 in0.0 mm 0.00 in0.0 mm
06:40 PM 90.0°F32.2°C 59.5°F15.3°C 36% 3.8 mph NW6.1 kmh NW 10.7 mph17.2 kmh 29.95 in1014.2 mb 0.00 in0.0 mm 0.00 in0.0 mm 0.00 in0.0 mm
06:45 PM 89.4°F31.9°C 59.0°F15.0°C 36% 5.4 mph WNW8.7 kmh WNW 12.1 mph19.5 kmh 29.95 in1014.2 mb 0.00 in0.0 mm 0.00 in0.0 mm 0.00 in0.0 mm
06:50 PM 88.9°F31.6°C 60.0°F15.6°C 38% 7.6 mph NW12.2 kmh NW 12.1 mph19.5 kmh 29.96 in1014.6 mb 0.00 in0.0 mm 0.00 in0.0 mm 0.00 in0.0 mm
06:55 PM 88.5°F31.4°C 59.0°F15.0°C 37% 5.4 mph WNW8.7 kmh WNW 10.7 mph17.2 kmh 29.95 in1014.2 mb 0.00 in0.0 mm 0.00 in0.0 mm 0.00 in0.0 mm
07:00 PM 88.2°F31.2°C 58.7°F14.8°C 37% 6.9 mph W11.1 kmh W 10.7 mph17.2 kmh 29.96 in1014.6 mb 0.00 in0.0 mm 0.00 in0.0 mm 0.00 in0.0 mm
07:15 PM 86.9°F30.5°C 60.4°F15.8°C 41% 6.9 mph NW11.1 kmh NW 9.2 mph14.8 kmh 29.96 in1014.6 mb 0.00 in0.0 mm 0.00 in0.0 mm 0.00 in0.0 mm
07:20 PM 86.7°F30.4°C 60.3°F15.7°C 41% 3.8 mph NW6.1 kmh NW 9.2 mph14.8 kmh 29.96 in1014.6 mb 0.00 in0.0 mm 0.00 in0.0 mm 0.00 in0.0 mm
07:25 PM 86.4°F30.2°C 59.9°F15.5°C 41% 6.0 mph NW9.7 kmh NW 12.1 mph19.5 kmh 29.96 in1014.6 mb 0.00 in0.0 mm 0.00 in0.0 mm 0.00 in0.0 mm
07:30 PM 86.0°F30.0°C 59.6°F15.3°C 41% 5.4 mph NW8.7 kmh NW 12.1 mph19.5 kmh 29.96 in1014.6 mb 0.00 in0.0 mm 0.00 in0.0 mm 0.00 in0.0 mm
07:35 PM 85.6°F29.8°C 60.0°F15.6°C 42% 5.4 mph NW8.7 kmh NW 10.7 mph17.2 kmh 29.96 in1014.6 mb 0.00 in0.0 mm 0.00 in0.0 mm 0.00 in0.0 mm
07:40 PM 85.1°F29.5°C 60.1°F15.6°C 43% 6.0 mph NW9.7 kmh NW 11.4 mph18.3 kmh 29.96 in1014.6 mb 0.00 in0.0 mm 0.00 in0.0 mm 0.00 in0.0 mm
07:45 PM 84.7°F29.3°C 59.8°F15.4°C 43% 3.8 mph NW6.1 kmh NW 11.4 mph18.3 kmh 29.96 in1014.6 mb 0.00 in0.0 mm 0.00 in0.0 mm 0.00 in0.0 mm
07:50 PM 84.6°F29.2°C 59.0°F15.0°C 42% 4.5 mph WNW7.2 kmh WNW 10.7 mph17.2 kmh 29.96 in1014.6 mb 0.00 in0.0 mm 0.00 in0.0 mm 0.00 in0.0 mm
07:55 PM 84.2°F29.0°C 60.0°F15.6°C 44% 3.8 mph WNW6.1 kmh WNW 10.7 mph17.2 kmh 29.97 in1014.9 mb 0.00 in0.0 mm 0.00 in0.0 mm 0.00 in0.0 mm
08:00 PM 84.0°F28.9°C 60.4°F15.8°C 45% 3.8 mph WNW6.1 kmh WNW 8.3 mph13.4 kmh 29.97 in1014.9 mb 0.00 in0.0 mm 0.00 in0.0 mm 0.00 in0.0 mm
08:05 PM 83.5°F28.6°C 60.0°F15.6°C 45% 3.8 mph W6.1 kmh W 7.6 mph12.2 kmh 29.97 in1014.9 mb 0.00 in0.0 mm 0.00 in0.0 mm 0.00 in0.0 mm
08:10 PM 82.9°F28.3°C 59.5°F15.3°C 45% 6.0 mph WNW9.7 kmh WNW 8.3 mph13.4 kmh 29.97 in1014.9 mb 0.00 in0.0 mm 0.00 in0.0 mm 0.00 in0.0 mm
08:15 PM 82.6°F28.1°C 59.1°F15.1°C 45% 6.0 mph WNW9.7 kmh WNW 9.8 mph15.8 kmh 29.97 in1014.9 mb 0.00 in0.0 mm 0.00 in0.0 mm 0.00 in0.0 mm
08:20 PM 82.2°F27.9°C 56.9°F13.8°C 42% 3.1 mph WNW5.0 kmh WNW 9.8 mph15.8 kmh 29.97 in1014.9 mb 0.00 in0.0 mm 0.00 in0.0 mm 0.00 in0.0 mm
08:25 PM 81.7°F27.6°C 57.1°F13.9°C 43% 5.4 mph WNW8.7 kmh WNW 9.2 mph14.8 kmh 29.98 in1015.2 mb 0.00 in0.0 mm 0.00 in0.0 mm 0.00 in0.0 mm
08:55 PM 79.5°F26.4°C 56.4°F13.6°C 45% 3.8 mph W6.1 kmh W 9.2 mph14.8 kmh 29.98 in1015.2 mb 0.00 in0.0 mm 0.00 in0.0 mm 0.00 in0.0 mm
09:05 PM 79.0°F26.1°C 56.5°F13.6°C 46% 5.4 mph W8.7 kmh W 7.6 mph12.2 kmh 29.99 in1015.6 mb 0.00 in0.0 mm 0.00 in0.0 mm 0.00 in0.0 mm
09:15 PM 78.6°F25.9°C 57.3°F14.1°C 48% 4.5 mph W7.2 kmh W 8.3 mph13.4 kmh 29.98 in1015.2 mb 0.00 in0.0 mm 0.00 in0.0 mm 0.00 in0.0 mm
09:20 PM 78.4°F25.8°C 57.2°F14.0°C 48% 3.1 mph W5.0 kmh W 8.3 mph13.4 kmh 29.99 in1015.6 mb 0.00 in0.0 mm 0.00 in0.0 mm 0.00 in0.0 mm
09:25 PM 78.1°F25.6°C 57.4°F14.1°C 49% 5.4 mph W8.7 kmh W 7.6 mph12.2 kmh 30.00 in1015.9 mb 0.00 in0.0 mm 0.00 in0.0 mm 0.00 in0.0 mm
09:30 PM 78.1°F25.6°C 58.0°F14.4°C 50% 4.5 mph WSW7.2 kmh WSW 6.9 mph11.1 kmh 30.00 in1015.9 mb 0.00 in0.0 mm 0.00 in0.0 mm 0.00 in0.0 mm
09:35 PM 77.9°F25.5°C 58.4°F14.7°C 51% 3.8 mph SW6.1 kmh SW 8.3 mph13.4 kmh 30.00 in1015.9 mb 0.00 in0.0 mm 0.00 in0.0 mm 0.00 in0.0 mm
09:40 PM 77.7°F25.4°C 58.7°F14.8°C 52% 4.5 mph SW7.2 kmh SW 8.3 mph13.4 kmh 30.00 in1015.9 mb 0.00 in0.0 mm 0.00 in0.0 mm 0.00 in0.0 mm
09:45 PM 77.4°F25.2°C 58.4°F14.7°C 52% 2.2 mph SW3.5 kmh SW 7.6 mph12.2 kmh 30.00 in1015.9 mb 0.00 in0.0 mm 0.00 in0.0 mm 0.00 in0.0 mm
09:50 PM 77.2°F25.1°C 58.8°F14.9°C 53% 2.2 mph SW3.5 kmh SW 6.9 mph11.1 kmh 30.00 in1015.9 mb 0.00 in0.0 mm 0.00 in0.0 mm 0.00 in0.0 mm
09:55 PM 76.8°F24.9°C 59.0°F15.0°C 54% 2.2 mph WSW3.5 kmh WSW 7.6 mph12.2 kmh 30.01 in1016.3 mb 0.00 in0.0 mm 0.00 in0.0 mm 0.00 in0.0 mm
10:00 PM 76.5°F24.7°C 59.1°F15.1°C 55% 4.5 mph WSW7.2 kmh WSW 7.6 mph12.2 kmh 30.01 in1016.3 mb 0.00 in0.0 mm 0.00 in0.0 mm 0.00 in0.0 mm
10:05 PM 76.1°F24.5°C 59.3°F15.2°C 56% 3.1 mph WSW5.0 kmh WSW 7.6 mph12.2 kmh 30.01 in1016.3 mb 0.00 in0.0 mm 0.00 in0.0 mm 0.00 in0.0 mm
10:10 PM 75.9°F24.4°C 59.6°F15.3°C 57% 3.1 mph WSW5.0 kmh WSW 7.6 mph12.2 kmh 30.01 in1016.3 mb 0.00 in0.0 mm 0.00 in0.0 mm 0.00 in0.0 mm
10:15 PM 75.6°F24.2°C 59.3°F15.2°C 57% 4.5 mph WSW7.2 kmh WSW 9.2 mph14.8 kmh 30.01 in1016.3 mb 0.00 in0.0 mm 0.00 in0.0 mm 0.00 in0.0 mm
10:20 PM 75.4°F24.1°C 59.6°F15.3°C 58% 2.2 mph WSW3.5 kmh WSW 9.2 mph14.8 kmh 30.02 in1016.6 mb 0.00 in0.0 mm 0.00 in0.0 mm 0.00 in0.0 mm
10:25 PM 75.2°F24.0°C 59.4°F15.2°C 58% 2.2 mph SW3.5 kmh SW 8.3 mph13.4 kmh 30.02 in1016.6 mb 0.00 in0.0 mm 0.00 in0.0 mm 0.00 in0.0 mm
10:30 PM 75.0°F23.9°C 60.2°F15.7°C 60% 3.8 mph WSW6.1 kmh WSW 8.3 mph13.4 kmh 30.02 in1016.6 mb 0.00 in0.0 mm 0.00 in0.0 mm 0.00 in0.0 mm
10:35 PM 74.8°F23.8°C 60.5°F15.8°C 61% 4.5 mph W7.2 kmh W 7.6 mph12.2 kmh 30.01 in1016.3 mb 0.00 in0.0 mm 0.00 in0.0 mm 0.00 in0.0 mm
10:40 PM 74.5°F23.6°C 60.2°F15.7°C 61% 3.8 mph WNW6.1 kmh WNW 9.2 mph14.8 kmh 30.02 in1016.6 mb 0.00 in0.0 mm 0.00 in0.0 mm 0.00 in0.0 mm
10:45 PM 74.5°F23.6°C 60.6°F15.9°C 62% 2.2 mph W3.5 kmh W 9.2 mph14.8 kmh 30.02 in1016.6 mb 0.00 in0.0 mm 0.00 in0.0 mm 0.00 in0.0 mm
10:50 PM 74.5°F23.6°C 60.6°F15.9°C 62% 3.8 mph WSW6.1 kmh WSW 7.6 mph12.2 kmh 30.02 in1016.6 mb 0.00 in0.0 mm 0.00 in0.0 mm 0.00 in0.0 mm
10:55 PM 74.5°F23.6°C 60.6°F15.9°C 62% 3.8 mph W6.1 kmh W 7.6 mph12.2 kmh 30.02 in1016.6 mb 0.00 in0.0 mm 0.00 in0.0 mm 0.00 in0.0 mm
11:00 PM 74.1°F23.4°C 60.3°F15.7°C 62% 3.1 mph W5.0 kmh W 7.6 mph12.2 kmh 30.01 in1016.3 mb 0.00 in0.0 mm 0.00 in0.0 mm 0.00 in0.0 mm
11:05 PM 74.1°F23.4°C 60.3°F15.7°C 62% 3.8 mph W6.1 kmh W 6.0 mph9.7 kmh 30.01 in1016.3 mb 0.00 in0.0 mm 0.00 in0.0 mm 0.00 in0.0 mm
11:10 PM 73.8°F23.2°C 60.9°F16.1°C 64% 3.1 mph WNW5.0 kmh WNW 6.0 mph9.7 kmh 30.01 in1016.3 mb 0.00 in0.0 mm 0.00 in0.0 mm 0.00 in0.0 mm
11:15 PM 73.4°F23.0°C 61.0°F16.1°C 65% 2.2 mph W3.5 kmh W 6.9 mph11.1 kmh 30.02 in1016.6 mb 0.00 in0.0 mm 0.00 in0.0 mm 0.00 in0.0 mm
11:20 PM 73.2°F22.9°C 60.3°F15.7°C 64% 3.1 mph W5.0 kmh W 6.9 mph11.1 kmh 30.02 in1016.6 mb 0.00 in0.0 mm 0.00 in0.0 mm 0.00 in0.0 mm
11:25 PM 73.2°F22.9°C 60.3°F15.7°C 64% 2.2 mph W3.5 kmh W 5.4 mph8.7 kmh 30.02 in1016.6 mb 0.00 in0.0 mm 0.00 in0.0 mm 0.00 in0.0 mm
11:30 PM 73.0°F22.8°C 60.2°F15.7°C 64% 3.8 mph WSW6.1 kmh WSW 6.0 mph9.7 kmh 30.02 in1016.6 mb 0.00 in0.0 mm 0.00 in0.0 mm 0.00 in0.0 mm
11:35 PM 73.0°F22.8°C 60.2°F15.7°C 64% 2.2 mph WSW3.5 kmh WSW 6.0 mph9.7 kmh 30.02 in1016.6 mb 0.00 in0.0 mm 0.00 in0.0 mm 0.00 in0.0 mm
11:40 PM 73.0°F22.8°C 60.2°F15.7°C 64% 2.2 mph WSW3.5 kmh WSW 6.0 mph9.7 kmh 30.02 in1016.6 mb 0.00 in0.0 mm 0.00 in0.0 mm 0.00 in0.0 mm
11:45 PM 72.9°F22.7°C 60.0°F15.6°C 64% 3.1 mph W5.0 kmh W 6.0 mph9.7 kmh 30.02 in1016.6 mb 0.00 in0.0 mm 0.00 in0.0 mm 0.00 in0.0 mm
11:50 PM 72.7°F22.6°C 59.8°F15.4°C 64% 2.2 mph W3.5 kmh W 6.0 mph9.7 kmh 30.02 in1016.6 mb 0.00 in0.0 mm 0.00 in0.0 mm 0.00 in0.0 mm
11:55 PM 72.5°F22.5°C 59.7°F15.4°C 64% 0.7 mph W1.1 kmh W 6.0 mph9.7 kmh 30.01 in1016.3 mb 0.00 in0.0 mm 0.00 in0.0 mm 0.00 in0.0 mm